Time;durP1;ratioP1;P1;durP2;ratioP2;P2;SDS_P1;SDS_P2;PMS_P1;PMS_P2;Temp;Humidity;BMP_temperature;BMP_pressure;BME280_temperature;BME280_humidity;BME280_pressure;Samples;Min_cycle;Max_cycle;Signal;HPM_P1;HPM_P2
2023/09/16 00:02:16;;;;;;;6.30;5.60;;;;;;;23.98;58.10;99930.34;4839690;29;20038;-41
2023/09/16 00:04:41;;;;;;;9.23;5.88;;;;;;;23.99;58.08;99932.78;4839936;29;20578;-40
2023/09/16 00:07:07;;;;;;;6.93;5.50;;;;;;;24.00;57.80;99928.97;4839898;29;20030;-40
2023/09/16 00:09:33;;;;;;;8.98;6.00;;;;;;;24.08;57.70;99940.31;4839978;29;20038;-39
2023/09/16 00:12:00;;;;;;;8.00;5.90;;;;;;;24.03;58.25;99932.19;4839610;29;20023;-40
2023/09/16 00:14:25;;;;;;;7.40;5.70;;;;;;;24.04;58.02;99933.84;4839821;29;20483;-40
2023/09/16 00:16:52;;;;;;;8.38;5.72;;;;;;;24.02;57.95;99936.84;4839911;29;20030;-39
2023/09/16 00:19:19;;;;;;;8.93;5.50;;;;;;;24.08;57.54;99941.09;4839704;29;20030;-37
2023/09/16 00:21:45;;;;;;;9.15;5.72;;;;;;;24.11;57.42;99942.47;4839606;29;20025;-41
2023/09/16 00:24:11;;;;;;;8.25;5.32;;;;;;;24.01;57.68;99932.50;4839460;29;20030;-39
2023/09/16 00:26:39;;;;;;;6.97;5.38;;;;;;;23.99;57.58;99934.72;4839375;29;20032;-41
2023/09/16 00:29:06;;;;;;;9.45;5.78;;;;;;;24.07;57.56;99928.63;4839605;29;20029;-42
2023/09/16 00:31:33;;;;;;;8.55;5.93;;;;;;;24.18;57.27;99926.63;4839329;29;20109;-40
2023/09/16 00:33:58;;;;;;;7.93;6.30;;;;;;;24.08;57.57;99932.94;4839598;29;20089;-40
2023/09/16 00:36:24;;;;;;;8.15;6.13;;;;;;;24.07;57.50;99936.00;4838848;29;20038;-41
2023/09/16 00:38:49;;;;;;;8.02;6.10;;;;;;;24.09;57.52;99947.38;4838807;29;20094;-40
2023/09/16 00:41:15;;;;;;;8.40;5.97;;;;;;;24.08;57.58;99951.19;4839056;29;20034;-41
2023/09/16 00:43:41;;;;;;;7.93;6.05;;;;;;;24.00;58.06;99939.84;4839601;29;20038;-40
2023/09/16 00:46:06;;;;;;;9.70;5.90;;;;;;;23.96;58.10;99946.16;4839815;29;20030;-40
2023/09/16 00:48:32;;;;;;;9.82;6.07;;;;;;;23.93;58.27;99942.09;4839721;29;20053;-41
2023/09/16 00:50:58;;;;;;;8.95;6.30;;;;;;;24.01;58.00;99943.38;4840258;29;20109;-41
2023/09/16 00:53:26;;;;;;;8.73;5.82;;;;;;;24.03;58.09;99945.78;4840256;29;20109;-41
2023/09/16 00:55:51;;;;;;;8.05;5.80;;;;;;;24.02;58.21;99944.19;4840179;29;20756;-40
2023/09/16 00:58:17;;;;;;;7.63;5.50;;;;;;;23.99;58.16;99945.59;4839874;29;20108;-42
2023/09/16 01:00:45;;;;;;;8.98;5.90;;;;;;;23.99;58.14;99938.22;4839981;29;20068;-41
2023/09/16 01:03:10;;;;;;;8.30;5.90;;;;;;;23.91;58.43;99940.75;4840068;29;20037;-40
2023/09/16 01:05:36;;;;;;;9.80;6.38;;;;;;;23.90;57.98;99934.53;4840249;29;20029;-40
2023/09/16 01:08:03;;;;;;;8.40;6.20;;;;;;;23.84;58.57;99941.09;4839908;29;20030;-42
2023/09/16 01:10:28;;;;;;;9.23;5.88;;;;;;;23.87;58.59;99951.38;4839728;29;20551;-40
2023/09/16 01:12:55;;;;;;;7.50;6.20;;;;;;;23.90;58.66;99953.53;4839421;29;20034;-40
2023/09/16 01:15:27;;;;;;;9.63;6.25;;;;;;;23.95;58.51;99963.53;4839802;29;20018;-41
2023/09/16 01:18:09;;;;;;;7.88;5.78;;;;;;;23.94;58.68;99967.38;4839789;29;20022;-41
2023/09/16 01:20:35;;;;;;;8.02;5.80;;;;;;;23.95;58.78;99979.84;4839290;29;20032;-43
2023/09/16 01:23:00;;;;;;;8.02;6.43;;;;;;;23.95;58.77;99991.53;4840033;29;20105;-43
2023/09/16 01:25:29;;;;;;;9.23;6.85;;;;;;;23.65;60.24;99991.78;4839719;29;20708;-41
2023/09/16 01:27:55;;;;;;;9.38;6.93;;;;;;;23.66;60.49;100006.97;4856561;29;20126;-42
2023/09/16 01:30:21;;;;;;;10.45;6.95;;;;;;;23.60;60.55;99998.06;4858266;29;20112;-41
2023/09/16 01:32:59;;;;;;;9.50;7.32;;;;;;;23.42;61.55;99996.84;4858053;29;20026;-43
2023/09/16 01:35:29;;;;;;;9.70;7.50;;;;;;;23.34;61.89;99992.84;4858108;29;20029;-41
2023/09/16 01:37:56;;;;;;;9.85;7.50;;;;;;;23.57;61.25;100004.88;4858167;29;20045;-41
2023/09/16 01:40:23;;;;;;;10.57;7.10;;;;;;;23.69;60.73;100006.41;4858165;29;20057;-39
2023/09/16 01:42:49;;;;;;;10.05;7.28;;;;;;;23.70;60.92;100011.53;4858137;29;20033;-40
2023/09/16 01:45:15;;;;;;;9.50;7.22;;;;;;;23.70;60.82;100011.53;4858231;29;20056;-40
2023/09/16 01:47:43;;;;;;;9.80;7.60;;;;;;;23.37;62.12;100018.59;4858034;29;20025;-41
2023/09/16 01:50:08;;;;;;;9.43;8.00;;;;;;;22.99;63.78;100019.06;4857873;29;20033;-41
2023/09/16 01:52:34;;;;;;;11.75;8.38;;;;;;;22.75;64.56;100018.91;4858199;29;20087;-41
2023/09/16 01:54:59;;;;;;;12.45;8.80;;;;;;;22.59;65.79;100022.75;4860265;29;20042;-43
2023/09/16 01:57:25;;;;;;;13.27;9.30;;;;;;;22.56;66.36;100016.00;4849291;29;20041;-42
2023/09/16 01:59:50;;;;;;;12.38;9.20;;;;;;;22.47;66.90;100020.38;4842683;29;20168;-41
2023/09/16 02:02:16;;;;;;;13.27;9.00;;;;;;;22.44;67.13;100020.91;4842629;29;20029;-41
2023/09/16 02:04:44;;;;;;;11.73;8.98;;;;;;;22.84;65.45;100011.78;4858120;29;20425;-40
2023/09/16 02:07:11;;;;;;;13.32;9.82;;;;;;;22.56;67.00;100004.31;4855829;29;20458;-40
2023/09/16 02:09:37;;;;;;;10.90;9.43;;;;;;;22.55;66.87;100002.72;4845157;29;20038;-40
2023/09/16 02:12:02;;;;;;;12.23;9.25;;;;;;;22.45;67.45;100003.56;4860906;29;20460;-41
2023/09/16 02:14:28;;;;;;;15.13;9.85;;;;;;;22.37;67.74;100007.66;4861081;29;20104;-42
2023/09/16 02:16:53;;;;;;;11.40;9.07;;;;;;;22.55;67.21;100002.72;4861028;29;20038;-42
2023/09/16 02:19:19;;;;;;;12.75;9.40;;;;;;;22.86;66.13;100000.66;4860970;29;20037;-42
2023/09/16 02:21:44;;;;;;;12.55;9.52;;;;;;;22.97;65.65;99993.28;4860878;29;20071;-38
2023/09/16 02:24:09;;;;;;;12.20;9.32;;;;;;;23.04;65.29;99982.97;4860671;29;20033;-40
2023/09/16 02:26:35;;;;;;;12.20;9.32;;;;;;;23.21;64.77;99985.31;4860792;29;20046;-40
2023/09/16 02:29:00;;;;;;;11.35;8.77;;;;;;;23.05;65.09;99983.78;4861172;29;20036;-39
2023/09/16 02:31:26;;;;;;;12.13;8.80;;;;;;;23.25;64.38;99990.97;4860665;29;20081;-39
2023/09/16 02:33:55;;;;;;;11.43;8.80;;;;;;;23.26;64.46;99993.41;4860914;29;20098;-39
2023/09/16 02:36:21;;;;;;;11.40;8.75;;;;;;;23.16;64.52;99988.88;4860917;29;20045;-40
2023/09/16 02:38:48;;;;;;;11.57;9.07;;;;;;;23.30;64.18;99988.22;4860840;29;20103;-37
2023/09/16 02:41:17;;;;;;;10.30;8.70;;;;;;;23.28;64.15;99985.00;4860835;29;20036;-41
2023/09/16 02:43:43;;;;;;;;;;;;;;;23.66;63.14;99986.06;4860960;29;20110;-40
2023/09/16 02:46:08;;;;;;;14.38;9.30;;;;;;;23.13;64.52;99986.72;4860150;29;20041;-44
2023/09/16 02:48:34;;;;;;;12.23;9.57;;;;;;;23.22;64.31;99989.63;4859763;29;20478;-42
2023/09/16 02:51:00;;;;;;;13.02;9.57;;;;;;;23.36;63.81;99987.09;4854764;29;20045;-42
2023/09/16 02:53:25;;;;;;;12.02;9.20;;;;;;;23.46;63.23;99986.22;4844848;29;20041;-44
2023/09/16 02:55:50;;;;;;;13.80;9.55;;;;;;;23.47;63.34;99985.94;4842092;29;20368;-41
2023/09/16 02:58:16;;;;;;;13.55;8.90;;;;;;;23.48;63.33;99981.34;4844344;29;20427;-44
2023/09/16 03:00:44;;;;;;;10.63;8.98;;;;;;;23.61;62.88;99986.13;4841545;29;20061;-41
2023/09/16 03:03:09;;;;;;;14.23;8.93;;;;;;;23.49;63.11;99982.94;4848792;29;20116;-41
2023/09/16 03:05:35;;;;;;;13.10;8.88;;;;;;;23.59;62.88;99985.59;4859238;29;20519;-41
2023/09/16 03:08:00;;;;;;;12.75;9.32;;;;;;;23.58;63.00;99982.03;4852764;29;20029;-42
2023/09/16 03:10:25;;;;;;;12.88;8.98;;;;;;;23.63;62.81;99983.91;4851322;29;20033;-42
2023/09/16 03:12:51;;;;;;;11.85;8.85;;;;;;;23.75;62.44;99981.63;4856217;29;20026;-40
2023/09/16 03:15:16;;;;;;;11.30;8.90;;;;;;;23.74;62.04;99985.47;4849575;29;20028;-42
2023/09/16 03:17:42;;;;;;;12.77;8.90;;;;;;;23.75;62.05;99978.91;4859316;29;20021;-40
2023/09/16 03:20:08;;;;;;;11.35;8.88;;;;;;;23.77;62.12;99976.72;4854464;29;20127;-40
2023/09/16 03:22:33;;;;;;;12.45;9.15;;;;;;;23.85;61.71;99972.59;4858961;29;20040;-43
2023/09/16 03:24:59;;;;;;;12.27;8.95;;;;;;;23.83;61.94;99980.22;4859965;29;20029;-39
2023/09/16 03:27:24;;;;;;;11.02;9.18;;;;;;;23.75;62.10;99976.19;4859056;29;20069;-40
2023/09/16 03:29:50;;;;;;;13.73;9.45;;;;;;;23.79;62.09;99971.03;4859882;29;20032;-40
2023/09/16 03:32:15;;;;;;;13.88;9.43;;;;;;;23.91;61.67;99984.22;4859931;29;20025;-41
2023/09/16 03:34:40;;;;;;;12.93;9.30;;;;;;;23.79;62.08;99982.69;4859664;29;20033;-40
2023/09/16 03:37:06;;;;;;;12.85;9.98;;;;;;;23.85;62.12;99985.38;4859369;29;20026;-41
2023/09/16 03:39:31;;;;;;;12.07;9.35;;;;;;;23.77;62.37;99990.31;4859594;29;20029;-44
2023/09/16 03:41:57;;;;;;;11.60;9.18;;;;;;;23.68;62.70;99988.50;4859702;29;20470;-41
2023/09/16 03:44:22;;;;;;;16.33;10.63;;;;;;;23.66;63.02;99987.97;4859449;29;20085;-40
2023/09/16 03:46:50;;;;;;;13.15;9.45;;;;;;;23.65;62.97;99980.94;4859285;29;20034;-40
2023/09/16 03:49:16;;;;;;;14.67;9.70;;;;;;;23.73;63.06;99977.59;4859587;29;20028;-42
2023/09/16 03:51:41;;;;;;;12.88;9.88;;;;;;;23.61;63.08;99984.19;4859655;29;20017;-41
2023/09/16 03:54:07;;;;;;;13.85;10.02;;;;;;;23.73;62.54;99989.25;4859549;29;20029;-41
2023/09/16 03:56:33;;;;;;;13.65;9.02;;;;;;;23.81;62.45;99985.94;4859444;29;20037;-42
2023/09/16 03:58:59;;;;;;;14.43;9.70;;;;;;;23.82;62.22;99986.78;4859308;29;20117;-41
2023/09/16 04:01:24;;;;;;;13.90;10.18;;;;;;;23.77;62.40;99989.50;4859571;29;20457;-41
2023/09/16 04:03:50;;;;;;;12.07;9.73;;;;;;;23.36;63.35;99993.34;4859006;29;20031;-41
2023/09/16 04:06:15;;;;;;;14.00;9.57;;;;;;;23.34;63.68;99998.25;4859047;29;20030;-43
2023/09/16 04:08:41;;;;;;;12.43;9.23;;;;;;;23.17;63.94;99995.09;4849575;29;20041;-42
2023/09/16 04:11:06;;;;;;;12.80;9.70;;;;;;;23.09;64.49;99995.69;4848614;29;20429;-38
2023/09/16 04:13:32;;;;;;;11.48;8.75;;;;;;;23.16;64.35;99996.19;4850313;29;20026;-40
2023/09/16 04:15:57;;;;;;;13.60;9.55;;;;;;;23.23;63.95;100002.13;4848634;29;20029;-41
2023/09/16 04:18:23;;;;;;;11.88;9.13;;;;;;;23.28;63.72;100004.78;4854650;29;20033;-42
2023/09/16 04:20:48;;;;;;;14.02;8.77;;;;;;;23.39;63.33;100002.84;4859265;29;20026;-40
2023/09/16 04:23:14;;;;;;;12.48;9.20;;;;;;;23.53;63.39;100017.41;4858895;29;20133;-41
2023/09/16 04:25:40;;;;;;;13.63;8.98;;;;;;;23.75;62.79;100022.38;4859596;29;20029;-43
2023/09/16 04:28:05;;;;;;;13.75;9.50;;;;;;;23.87;62.52;100024.75;4859373;29;20033;-40
2023/09/16 04:30:34;;;;;;;16.45;9.02;;;;;;;23.89;62.50;100019.03;4859300;29;20510;-42
2023/09/16 04:32:59;;;;;;;15.60;9.88;;;;;;;23.99;61.91;100010.81;4858935;29;20033;-42
2023/09/16 04:35:26;;;;;;;10.73;8.93;;;;;;;23.95;61.86;100016.00;4859373;29;20029;-44
2023/09/16 04:37:51;;;;;;;11.00;8.98;;;;;;;23.93;62.02;100015.47;4852959;29;20037;-41
2023/09/16 04:40:17;;;;;;;11.70;9.32;;;;;;;23.80;62.54;100016.94;4840962;29;20026;-41
2023/09/16 04:42:42;;;;;;;12.88;9.10;;;;;;;23.82;62.45;100013.94;4840813;29;20391;-40
2023/09/16 04:45:08;;;;;;;12.20;9.55;;;;;;;23.95;62.24;100012.44;4840802;29;20030;-41
2023/09/16 04:47:36;;;;;;;13.20;9.15;;;;;;;24.12;61.71;100012.84;4841200;29;20026;-39
2023/09/16 04:50:02;;;;;;;11.48;8.90;;;;;;;24.02;62.04;100012.13;4840775;29;20057;-42
2023/09/16 04:52:27;;;;;;;14.50;9.98;;;;;;;24.00;61.60;100013.22;4840623;29;20118;-43
2023/09/16 04:54:53;;;;;;;11.57;9.73;;;;;;;24.02;61.63;100015.66;4840303;29;20070;-41
2023/09/16 04:57:22;;;;;;;15.10;9.63;;;;;;;23.99;61.49;100006.19;4840264;29;20030;-42
2023/09/16 04:59:48;;;;;;;14.10;9.73;;;;;;;23.95;61.62;100017.88;4840217;29;20058;-42
2023/09/16 05:02:14;;;;;;;14.27;9.15;;;;;;;23.89;61.91;100019.84;4840578;29;20034;-38
2023/09/16 05:04:40;;;;;;;11.40;9.25;;;;;;;23.89;62.06;100025.28;4840534;29;20032;-41
2023/09/16 05:07:06;;;;;;;13.32;9.07;;;;;;;23.93;61.93;100026.34;4840339;29;20053;-40
2023/09/16 05:09:31;;;;;;;13.73;9.60;;;;;;;23.88;62.19;100033.72;4848047;29;20471;-42
2023/09/16 05:11:57;;;;;;;12.30;9.57;;;;;;;23.93;62.24;100028.25;4851302;29;20064;-41
2023/09/16 05:14:24;;;;;;;11.60;8.90;;;;;;;24.09;61.93;100023.50;4850352;29;20382;-40
2023/09/16 05:16:49;;;;;;;14.18;9.63;;;;;;;24.18;65.57;100029.94;4849542;29;20025;-40
2023/09/16 05:19:15;;;;;;;12.77;8.93;;;;;;;24.29;63.23;100030.63;4849851;29;20113;-41
2023/09/16 05:21:40;;;;;;;14.85;8.88;;;;;;;24.45;62.08;100037.53;4850492;29;20480;-42
2023/09/16 05:24:06;;;;;;;13.63;9.65;;;;;;;24.52;63.25;100042.63;4850031;29;20440;-41
2023/09/16 05:26:31;;;;;;;14.65;10.00;;;;;;;24.84;62.31;100052.88;4848565;29;20467;-40
2023/09/16 05:28:57;;;;;;;29.20;21.08;;;;;;;25.10;59.03;100047.09;4848279;29;20129;-40
2023/09/16 05:31:23;;;;;;;13.07;10.32;;;;;;;25.07;58.53;100048.47;4853939;29;20072;-41
2023/09/16 05:33:49;;;;;;;14.40;10.50;;;;;;;24.65;60.11;100047.38;4853502;29;20053;-40
2023/09/16 05:36:19;;;;;;;15.65;10.27;;;;;;;24.54;61.53;100060.31;4852154;29;20091;-41
2023/09/16 05:38:44;;;;;;;;;;;;;;;24.83;59.80;100059.44;4852973;29;20407;-41
2023/09/16 05:41:09;;;;;;;15.13;10.18;;;;;;;24.68;59.85;100060.41;4851009;29;19912;-42
2023/09/16 05:43:35;;;;;;;14.25;9.48;;;;;;;24.66;59.80;100059.09;4853400;29;20029;-40
2023/09/16 05:46:01;;;;;;;31.38;21.38;;;;;;;24.36;61.10;100063.72;4855931;29;20029;-40
2023/09/16 05:48:27;;;;;;;15.40;11.30;;;;;;;24.15;62.96;100066.63;4851967;29;20182;-40
2023/09/16 05:50:57;;;;;;;16.05;10.27;;;;;;;24.25;62.88;100065.72;4854487;29;20521;-39
2023/09/16 05:53:24;;;;;;;14.35;9.43;;;;;;;24.56;62.29;100066.25;4852838;29;20033;-41
2023/09/16 05:55:49;;;;;;;22.95;13.35;;;;;;;24.70;60.93;100069.09;4848877;29;20098;-41
2023/09/16 05:58:15;;;;;;;20.80;10.40;;;;;;;24.92;60.71;100084.06;4852014;29;20026;-40
2023/09/16 06:00:40;;;;;;;18.27;11.48;;;;;;;24.83;60.34;100083.09;4850693;29;20566;-41
2023/09/16 06:03:05;;;;;;;13.48;9.68;;;;;;;25.12;59.90;100089.25;4851754;29;20160;-42
2023/09/16 06:05:33;;;;;;;14.90;9.40;;;;;;;25.39;58.98;100087.84;4849790;29;20026;-41
2023/09/16 06:07:58;;;;;;;14.63;9.20;;;;;;;25.56;57.94;100084.59;4851846;29;20030;-43
2023/09/16 06:10:24;;;;;;;17.30;9.48;;;;;;;25.52;56.98;100089.03;4854596;29;20395;-42
2023/09/16 06:12:49;;;;;;;14.18;9.13;;;;;;;25.44;56.84;100095.97;4859457;29;20063;-41
2023/09/16 06:15:15;;;;;;;11.82;8.50;;;;;;;25.59;56.57;100100.38;4859633;29;20104;-43
2023/09/16 06:17:40;;;;;;;13.93;8.55;;;;;;;25.22;56.30;100098.41;4859166;29;20021;-40
2023/09/16 06:20:06;;;;;;;14.05;8.45;;;;;;;24.32;58.32;100103.47;4860315;29;20025;-41
2023/09/16 06:22:32;;;;;;;10.73;7.93;;;;;;;24.51;58.18;100109.84;4856795;29;20036;-43
2023/09/16 06:24:58;;;;;;;15.20;8.52;;;;;;;24.17;59.51;100112.56;4859555;29;20033;-40
2023/09/16 06:27:23;;;;;;;13.40;8.77;;;;;;;24.43;59.40;100121.31;4859729;29;20463;-41
2023/09/16 06:29:50;;;;;;;13.90;9.00;;;;;;;24.56;59.38;100123.38;4860182;29;20112;-42
2023/09/16 06:32:16;;;;;;;14.30;9.90;;;;;;;24.88;59.24;100137.47;4855790;29;20126;-42
2023/09/16 06:34:41;;;;;;;14.48;8.73;;;;;;;24.88;58.88;100141.00;4859559;29;20030;-41
2023/09/16 06:37:07;;;;;;;16.60;11.93;;;;;;;24.94;59.46;100137.13;4848951;29;20086;-39
2023/09/16 06:39:33;;;;;;;24.65;18.08;;;;;;;25.07;59.30;100148.41;4855721;29;20473;-39
2023/09/16 06:41:58;;;;;;;14.95;10.98;;;;;;;24.93;60.02;100157.28;4859204;29;20053;-41
2023/09/16 06:44:24;;;;;;;13.82;9.68;;;;;;;24.94;60.00;100152.63;4859201;29;20116;-39
2023/09/16 06:46:49;;;;;;;12.50;9.45;;;;;;;25.08;59.40;100152.78;4859043;29;20029;-39
2023/09/16 06:49:19;;;;;;;15.10;9.90;;;;;;;25.00;60.00;100156.09;4858660;29;20100;-42
2023/09/16 06:51:44;;;;;;;13.90;10.68;;;;;;;25.01;60.18;100157.75;4858450;29;20574;-40
2023/09/16 06:54:10;;;;;;;14.27;10.00;;;;;;;24.91;60.48;100158.69;4862130;29;20034;-40
2023/09/16 06:56:35;;;;;;;13.23;10.88;;;;;;;25.16;60.26;100161.09;4847552;29;20026;-43
2023/09/16 06:59:01;;;;;;;14.32;11.40;;;;;;;25.32;60.28;100166.38;4859016;29;20105;-43
2023/09/16 07:01:27;;;;;;;13.10;9.43;;;;;;;25.49;59.13;100174.06;4859469;29;20432;-38
2023/09/16 07:03:52;;;;;;;15.48;10.20;;;;;;;25.70;59.35;100166.41;4859400;29;20124;-40
2023/09/16 07:06:18;;;;;;;12.93;10.18;;;;;;;25.45;59.55;100178.47;4859808;29;20100;-41
2023/09/16 07:08:43;;;;;;;12.27;10.10;;;;;;;25.33;59.94;100178.91;4858817;29;20158;-41
2023/09/16 07:11:11;;;;;;;14.02;10.82;;;;;;;25.14;61.34;100181.56;4859546;29;20098;-41
2023/09/16 07:13:36;;;;;;;15.75;11.70;;;;;;;24.83;62.80;100189.22;4859851;29;20501;-38
2023/09/16 07:16:02;;;;;;;15.63;11.32;;;;;;;24.76;63.42;100190.38;4859862;29;20029;-38
2023/09/16 07:18:27;;;;;;;13.90;11.18;;;;;;;24.32;65.07;100190.47;4855811;29;20052;-39
2023/09/16 07:20:53;;;;;;;15.23;11.77;;;;;;;24.33;65.06;100187.50;4840824;29;20026;-40
2023/09/16 07:23:18;;;;;;;15.88;11.45;;;;;;;24.61;64.46;100187.00;4841242;29;20033;-39
2023/09/16 07:25:58;;;;;;;13.13;11.27;;;;;;;24.82;63.81;100193.06;4839682;29;20685;-39
2023/09/16 07:28:25;;;;;;;14.07;10.98;;;;;;;24.86;63.38;100189.47;4845418;29;20527;-40
2023/09/16 07:30:51;;;;;;;14.38;11.02;;;;;;;24.79;63.83;100197.19;4850867;29;20044;-39
2023/09/16 07:33:16;;;;;;;17.50;11.50;;;;;;;24.89;63.89;100193.53;4859584;29;20029;-39
2023/09/16 07:35:42;;;;;;;15.27;10.30;;;;;;;24.62;64.55;100194.06;4859141;29;20459;-41
2023/09/16 07:38:10;;;;;;;15.00;11.40;;;;;;;24.58;64.52;100197.38;4856412;29;20026;-41
2023/09/16 07:40:38;;;;;;;15.07;11.53;;;;;;;24.81;64.38;100202.31;4840523;29;20538;-41
2023/09/16 07:43:08;;;;;;;15.18;11.35;;;;;;;24.90;63.74;100195.97;4840660;29;20101;-39
2023/09/16 07:45:34;;;;;;;12.60;11.00;;;;;;;25.12;62.85;100203.63;4840286;29;20538;-39
2023/09/16 07:47:59;;;;;;;12.95;11.18;;;;;;;25.10;63.13;100205.03;4840053;29;20038;-39
2023/09/16 07:50:24;;;;;;;15.40;11.02;;;;;;;25.18;63.18;100207.09;4855478;29;20025;-40
2023/09/16 07:52:51;;;;;;;13.90;10.43;;;;;;;25.00;64.26;100205.94;4856869;29;20044;-39
2023/09/16 07:55:16;;;;;;;16.85;10.95;;;;;;;25.09;64.24;100206.94;4858000;29;20064;-39
2023/09/16 07:57:42;;;;;;;14.57;10.15;;;;;;;24.98;63.57;100208.94;4858092;29;20034;-39
2023/09/16 08:00:08;;;;;;;12.93;10.75;;;;;;;25.20;63.36;100206.81;4858541;29;20057;-43
2023/09/16 08:02:34;;;;;;;12.57;9.90;;;;;;;25.36;62.32;100214.53;4858491;29;20503;-39
2023/09/16 08:04:59;;;;;;;14.35;10.65;;;;;;;25.11;63.82;100221.06;4858958;29;20432;-39
2023/09/16 08:07:25;;;;;;;12.15;10.40;;;;;;;25.15;63.75;100216.66;4859021;29;20550;-38
2023/09/16 08:09:53;;;;;;;12.60;10.18;;;;;;;25.12;63.21;100213.72;4847771;29;20094;-40
2023/09/16 08:12:19;;;;;;;13.18;10.38;;;;;;;25.22;63.20;100213.56;4849739;29;20040;-38
2023/09/16 08:14:45;;;;;;;14.40;10.43;;;;;;;25.01;63.37;100213.00;4840586;29;20025;-38
2023/09/16 08:17:11;;;;;;;11.85;9.40;;;;;;;25.00;63.20;100216.84;4841013;29;20373;-40
2023/09/16 08:19:36;;;;;;;14.20;10.73;;;;;;;25.11;62.91;100218.34;4840982;29;20037;-39
2023/09/16 08:22:01;;;;;;;12.73;10.13;;;;;;;24.83;64.04;100209.09;4840638;29;20048;-40
2023/09/16 08:24:27;;;;;;;13.55;10.00;;;;;;;24.92;63.70;100218.28;4849149;29;20030;-40
2023/09/16 08:26:52;;;;;;;11.18;9.57;;;;;;;24.86;63.99;100216.69;4858919;29;20085;-39
2023/09/16 08:29:18;;;;;;;13.73;9.77;;;;;;;24.53;64.80;100223.81;4858236;29;20088;-40
2023/09/16 08:31:43;;;;;;;13.18;10.23;;;;;;;24.68;64.20;100228.31;4859090;29;20030;-41
2023/09/16 08:34:09;;;;;;;12.13;10.15;;;;;;;24.29;66.07;100229.91;4858868;29;20483;-40
2023/09/16 08:36:34;;;;;;;11.93;9.35;;;;;;;24.45;66.05;100235.25;4858882;29;20036;-39
2023/09/16 08:38:59;;;;;;;11.55;10.35;;;;;;;24.61;65.56;100227.81;4858848;29;20033;-40
2023/09/16 08:41:33;;;;;;;12.25;10.38;;;;;;;24.25;67.13;100237.03;4858922;29;20038;-39
2023/09/16 08:44:04;;;;;;;12.32;10.57;;;;;;;24.38;66.87;100243.72;4858938;29;20034;-40
2023/09/16 08:46:33;;;;;;;14.38;10.73;;;;;;;24.18;67.72;100236.53;4858686;29;20033;-39
2023/09/16 08:49:03;;;;;;;15.40;10.85;;;;;;;24.12;67.00;100240.38;4859039;29;20033;-40
2023/09/16 08:51:32;;;;;;;16.40;11.50;;;;;;;24.25;67.37;100244.38;4858607;29;20037;-40
2023/09/16 08:53:59;;;;;;;14.83;10.80;;;;;;;24.34;66.97;100231.81;4859066;29;20022;-40
2023/09/16 08:56:25;;;;;;;12.88;10.90;;;;;;;24.36;67.22;100235.03;4858574;29;20274;-40
2023/09/16 08:58:51;;;;;;;13.77;11.43;;;;;;;24.52;67.24;100222.16;4858858;29;20089;-41
2023/09/16 09:01:20;;;;;;;14.38;10.70;;;;;;;24.58;67.53;100221.84;4858744;29;20387;-38
2023/09/16 09:03:45;;;;;;;13.60;10.18;;;;;;;24.81;66.39;100224.06;4861084;29;20483;-40
2023/09/16 09:06:12;;;;;;;16.38;10.70;;;;;;;24.85;66.20;100219.72;4861789;29;20026;-39
2023/09/16 09:08:38;;;;;;;13.07;10.65;;;;;;;24.80;65.88;100215.09;4862290;29;20037;-40
2023/09/16 09:11:04;;;;;;;13.05;10.10;;;;;;;24.77;65.50;100210.25;4862687;29;20563;-41
2023/09/16 09:13:29;;;;;;;13.40;10.48;;;;;;;24.94;65.58;100204.34;4860467;29;20473;-43
2023/09/16 09:15:59;;;;;;;14.50;10.38;;;;;;;25.09;65.51;100201.50;4876617;29;20215;-41
2023/09/16 09:18:27;;;;;;;12.45;10.13;;;;;;;25.24;65.18;100199.72;4862251;29;20112;-40
2023/09/16 09:20:53;;;;;;;12.07;10.50;;;;;;;25.33;64.14;100197.97;4862115;29;20029;-41
2023/09/16 09:23:19;;;;;;;12.80;10.35;;;;;;;25.38;62.98;100195.19;4862425;29;20378;-41
2023/09/16 09:25:44;;;;;;;12.48;10.27;;;;;;;25.52;62.79;100195.28;4862235;29;20025;-40
2023/09/16 09:28:13;;;;;;;11.93;9.60;;;;;;;25.47;62.27;100189.91;4862087;29;20351;-41
2023/09/16 09:30:41;;;;;;;15.10;10.93;;;;;;;25.58;62.41;100198.75;4860894;29;20033;-39
2023/09/16 09:33:15;;;;;;;11.85;10.35;;;;;;;25.48;62.29;100195.06;4860615;29;20285;-40
2023/09/16 09:35:41;;;;;;;16.60;11.50;;;;;;;25.42;63.05;100195.41;4861587;29;20030;-41
2023/09/16 09:38:07;;;;;;;20.85;13.05;;;;;;;25.19;64.67;100197.84;4842899;29;20049;-39
2023/09/16 09:40:32;;;;;;;15.63;11.25;;;;;;;25.33;64.80;100193.31;4842598;29;20033;-42
2023/09/16 09:42:59;;;;;;;18.15;12.07;;;;;;;25.26;64.96;100198.31;4843046;29;20117;-38
2023/09/16 09:45:25;;;;;;;15.27;10.80;;;;;;;25.24;63.65;100188.81;4843053;29;20030;-41
2023/09/16 09:47:52;;;;;;;14.20;10.63;;;;;;;25.40;62.65;100195.72;4843180;29;20037;-42
2023/09/16 09:50:20;;;;;;;15.02;10.93;;;;;;;25.66;61.86;100188.00;4842745;29;20136;-43
2023/09/16 09:52:52;;;;;;;16.30;10.38;;;;;;;25.33;62.58;100179.72;4843145;29;20049;-41
2023/09/16 09:55:24;;;;;;;14.65;11.75;;;;;;;25.48;63.24;100194.25;4861371;29;20089;-40
2023/09/16 09:57:51;;;;;;;12.27;10.50;;;;;;;25.34;62.76;100183.25;4861262;29;20037;-40
2023/09/16 10:00:22;;;;;;;13.82;11.27;;;;;;;25.22;64.71;100194.53;4860924;29;20149;-41
2023/09/16 10:02:48;;;;;;;11.98;10.45;;;;;;;25.62;62.20;100186.97;4861259;29;20037;-38
2023/09/16 10:05:15;;;;;;;17.13;10.50;;;;;;;25.76;62.30;100192.53;4861199;29;20499;-41
2023/09/16 10:07:44;;;;;;;21.58;12.43;;;;;;;25.91;61.88;100186.88;4860982;29;20029;-40
2023/09/16 10:10:13;;;;;;;;;;;;;;;26.16;59.74;100193.06;4861227;29;20025;-39
2023/09/16 10:12:40;;;;;;;15.93;9.75;;;;;;;26.12;60.92;100190.09;4851091;29;19968;-40
2023/09/16 10:15:07;;;;;;;12.00;8.77;;;;;;;26.18;59.77;100193.56;4842106;29;20484;-40
2023/09/16 10:17:32;;;;;;;14.68;10.30;;;;;;;26.21;61.05;100183.97;4842485;29;20029;-39
2023/09/16 10:19:59;;;;;;;18.70;10.30;;;;;;;26.65;59.35;100185.44;4842414;29;20034;-43
2023/09/16 10:22:25;;;;;;;14.48;9.40;;;;;;;26.73;58.98;100182.00;4842353;29;20081;-39
2023/09/16 10:24:50;;;;;;;15.15;10.15;;;;;;;27.22;57.79;100183.25;4842427;29;20030;-40
2023/09/16 10:27:23;;;;;;;13.63;9.82;;;;;;;27.37;57.08;100181.34;4842241;29;20232;-39
2023/09/16 10:29:49;;;;;;;12.82;9.80;;;;;;;27.04;59.08;100176.78;4842386;29;20030;-42
2023/09/16 10:32:16;;;;;;;16.38;10.82;;;;;;;27.33;57.97;100181.16;4842178;29;20150;-41
2023/09/16 10:34:47;;;;;;;11.77;9.23;;;;;;;27.57;57.61;100178.19;4842269;29;20522;-40
2023/09/16 10:37:16;;;;;;;13.05;10.13;;;;;;;26.81;58.39;100170.41;4842100;29;20030;-40
2023/09/16 10:39:48;;;;;;;15.00;10.43;;;;;;;27.16;57.18;100178.22;4854369;29;20029;-40
2023/09/16 10:42:16;;;;;;;15.02;10.30;;;;;;;27.53;55.85;100176.38;4859647;29;20029;-42
2023/09/16 10:44:43;;;;;;;11.90;9.80;;;;;;;27.51;56.56;100176.66;4859965;29;20406;-41
2023/09/16 10:47:09;;;;;;;11.90;9.60;;;;;;;27.84;55.88;100173.78;4860140;29;20037;-42
2023/09/16 10:49:34;;;;;;;13.20;9.52;;;;;;;27.93;56.20;100166.47;4859930;29;20045;-44
2023/09/16 10:52:04;;;;;;;13.85;9.95;;;;;;;28.39;55.51;100165.34;4857254;29;20057;-42
2023/09/16 10:55:13;;;;;;;12.68;10.30;;;;;;;28.93;52.29;100159.03;4860193;29;20040;-43
2023/09/16 10:57:47;;;;;;;27.35;22.60;;;;;;;28.83;52.86;100155.44;4850968;29;20049;-41
2023/09/16 11:00:16;;;;;;;18.42;12.80;;;;;;;28.19;53.36;100158.44;4848677;29;20064;-42
2023/09/16 11:03:00;;;;;;;21.70;13.85;;;;;;;28.47;53.24;100159.09;4841925;29;20089;-42
2023/09/16 11:05:26;;;;;;;14.18;11.10;;;;;;;28.13;53.40;100147.97;4841436;29;20097;-42
2023/09/16 11:07:55;;;;;;;15.85;11.27;;;;;;;27.75;55.80;100145.53;4842100;29;20689;-41
2023/09/16 11:10:23;;;;;;;17.83;13.38;;;;;;;27.97;54.93;100148.34;4841529;29;20045;-41
2023/09/16 11:12:49;;;;;;;18.60;13.50;;;;;;;27.72;55.85;100143.41;4849585;29;20048;-41
2023/09/16 11:15:15;;;;;;;16.95;13.45;;;;;;;27.72;55.73;100137.94;4842927;29;20522;-40
2023/09/16 11:17:41;;;;;;;18.48;13.10;;;;;;;27.84;54.87;100144.50;4841264;29;20038;-40